createdAt,value
2017-10-22T00:02:01.914Z,10.50
2017-10-22T00:04:31.432Z,10.50
2017-10-22T00:07:00.670Z,10.50
2017-10-22T00:09:29.927Z,10.50
2017-10-22T00:11:59.205Z,10.50
2017-10-22T00:14:28.489Z,10.50
2017-10-22T00:16:57.817Z,10.50
2017-10-22T00:19:28.137Z,10.50
2017-10-22T00:21:57.376Z,10.40
2017-10-22T00:24:26.650Z,10.40
2017-10-22T00:26:56.053Z,10.40
2017-10-22T00:29:26.088Z,10.40
2017-10-22T00:31:55.509Z,10.40
2017-10-22T00:34:24.946Z,10.30
2017-10-22T00:36:54.199Z,10.30
2017-10-22T00:39:23.486Z,10.20
2017-10-22T00:41:52.777Z,10.20
2017-10-22T00:44:22.021Z,10.10
2017-10-22T00:46:51.298Z,10.10
2017-10-22T00:49:20.634Z,10.10
2017-10-22T00:51:49.931Z,10.00
2017-10-22T00:54:19.200Z,10.00
2017-10-22T00:56:48.526Z,9.90
2017-10-22T00:59:18.506Z,9.80
2017-10-22T01:01:47.963Z,9.80
2017-10-22T01:04:17.242Z,9.70
2017-10-22T01:06:46.486Z,9.80
2017-10-22T01:09:15.727Z,9.80
2017-10-22T01:11:44.982Z,9.90
2017-10-22T01:14:14.236Z,10.00
2017-10-22T01:16:43.535Z,10.10
2017-10-22T01:19:13.555Z,10.10
2017-10-22T01:21:42.830Z,10.00
2017-10-22T01:24:12.096Z,10.00
2017-10-22T01:26:41.388Z,10.00
2017-10-22T01:29:10.747Z,10.00
2017-10-22T01:31:40.046Z,10.00
2017-10-22T01:34:09.314Z,9.90
2017-10-22T01:36:38.559Z,10.00
2017-10-22T01:39:07.851Z,9.90
2017-10-22T01:41:37.909Z,10.00
2017-10-22T01:44:07.170Z,10.00
2017-10-22T01:46:36.410Z,10.00
2017-10-22T01:49:05.654Z,10.20
2017-10-22T01:51:35.710Z,10.30
2017-10-22T01:54:05.162Z,10.30
2017-10-22T01:56:34.428Z,10.40
2017-10-22T01:59:03.960Z,10.50
2017-10-22T02:01:33.320Z,10.60
2017-10-22T02:04:02.567Z,10.60
2017-10-22T02:06:31.851Z,10.60
2017-10-22T02:09:01.308Z,10.70
2017-10-22T02:11:31.423Z,10.70
2017-10-22T02:14:01.466Z,10.70
2017-10-22T02:16:30.733Z,10.70
2017-10-22T02:19:00.013Z,10.70
2017-10-22T02:21:29.264Z,10.70
2017-10-22T02:23:58.531Z,10.70
2017-10-22T02:26:27.784Z,10.60
2017-10-22T02:28:57.062Z,10.50
2017-10-22T02:31:26.307Z,10.50
2017-10-22T02:33:55.548Z,10.50
2017-10-22T02:36:25.581Z,10.50
2017-10-22T02:38:54.844Z,10.50
2017-10-22T02:41:24.876Z,10.70
2017-10-22T02:43:55.014Z,10.80
2017-10-22T02:46:25.123Z,10.90
2017-10-22T02:48:55.139Z,10.90
2017-10-22T02:51:24.389Z,10.90
2017-10-22T02:53:53.666Z,11.00
2017-10-22T02:56:22.921Z,11.00
2017-10-22T02:58:52.187Z,10.90
2017-10-22T03:01:21.451Z,11.00
2017-10-22T03:03:50.682Z,10.90
2017-10-22T03:06:19.943Z,10.90
2017-10-22T03:08:50.003Z,10.70
2017-10-22T03:11:19.250Z,10.60
2017-10-22T03:13:48.663Z,10.70
2017-10-22T03:16:18.789Z,10.80
2017-10-22T03:18:48.801Z,10.90
2017-10-22T03:21:18.054Z,10.90
2017-10-22T03:23:47.302Z,10.90
2017-10-22T03:26:17.334Z,10.80
2017-10-22T03:28:46.722Z,10.80
2017-10-22T03:31:16.754Z,10.90
2017-10-22T03:33:45.989Z,10.90
2017-10-22T03:36:15.234Z,10.90
2017-10-22T03:38:44.508Z,10.90
2017-10-22T03:41:14.669Z,10.90
2017-10-22T03:43:44.795Z,10.60
2017-10-22T03:46:14.842Z,10.50
2017-10-22T03:48:44.318Z,10.50
2017-10-22T03:51:13.573Z,10.40
2017-10-22T03:53:42.815Z,10.30
2017-10-22T03:56:12.844Z,10.00
2017-10-22T03:58:42.078Z,10.00
2017-10-22T04:01:11.350Z,9.90
2017-10-22T04:03:41.405Z,9.90
2017-10-22T04:06:10.958Z,9.90
2017-10-22T04:08:40.969Z,9.90
2017-10-22T04:11:10.247Z,9.90
2017-10-22T04:13:39.680Z,9.90
2017-10-22T04:16:09.710Z,10.00
2017-10-22T04:18:38.951Z,10.00
2017-10-22T04:21:08.194Z,10.20
2017-10-22T04:23:38.225Z,10.20
2017-10-22T04:26:07.614Z,10.20
2017-10-22T04:28:37.055Z,10.30
2017-10-22T04:31:07.791Z,10.40
2017-10-22T04:33:37.062Z,10.40
2017-10-22T04:36:06.337Z,10.50
2017-10-22T04:38:35.571Z,10.40
2017-10-22T04:41:05.583Z,10.60
2017-10-22T04:43:34.839Z,10.50
2017-10-22T04:46:04.102Z,10.50
2017-10-22T04:48:33.366Z,10.60
2017-10-22T04:51:02.623Z,10.60
2017-10-22T04:53:31.879Z,10.60
2017-10-22T04:56:01.167Z,10.60
2017-10-22T04:58:30.431Z,10.60
2017-10-22T05:00:59.677Z,10.60
2017-10-22T05:03:29.766Z,10.60
2017-10-22T05:05:59.045Z,10.60
2017-10-22T05:08:28.294Z,10.50
2017-10-22T05:10:57.641Z,10.50
2017-10-22T05:13:26.929Z,10.50
2017-10-22T05:15:56.319Z,10.60
2017-10-22T05:18:26.351Z,10.50
2017-10-22T05:20:55.731Z,10.50
2017-10-22T05:23:25.751Z,10.50
2017-10-22T05:25:55.127Z,10.50
2017-10-22T05:28:24.378Z,10.60
2017-10-22T05:30:53.630Z,10.50
2017-10-22T05:33:22.885Z,10.60
2017-10-22T05:35:52.163Z,10.60
2017-10-22T05:38:22.186Z,10.50
2017-10-22T05:40:51.460Z,10.50
2017-10-22T05:43:20.743Z,10.50
2017-10-22T05:45:49.981Z,10.50
2017-10-22T05:48:20.023Z,10.30
2017-10-22T05:50:49.269Z,10.30
2017-10-22T05:53:18.538Z,10.20
2017-10-22T05:55:48.411Z,10.10
2017-10-22T05:58:18.501Z,10.00
2017-10-22T06:00:47.827Z,10.00
2017-10-22T06:03:17.166Z,9.90
2017-10-22T06:05:47.200Z,9.90
2017-10-22T06:08:16.455Z,9.90
2017-10-22T06:10:46.459Z,9.90
2017-10-22T06:13:15.767Z,9.90
2017-10-22T06:15:45.006Z,9.90
2017-10-22T06:18:14.265Z,10.00
2017-10-22T06:20:43.695Z,10.00
2017-10-22T06:23:12.985Z,10.00
2017-10-22T06:25:43.007Z,10.10
2017-10-22T06:28:12.265Z,10.10
2017-10-22T06:30:41.518Z,10.20
2017-10-22T06:33:10.760Z,10.40
2017-10-22T06:35:40.029Z,10.50
2017-10-22T06:38:09.302Z,10.60
2017-10-22T06:40:38.556Z,10.60
2017-10-22T06:43:07.960Z,10.60
2017-10-22T06:45:37.371Z,10.70
2017-10-22T06:48:06.643Z,10.70
2017-10-22T06:50:35.909Z,10.80
2017-10-22T06:53:06.223Z,10.90
2017-10-22T06:55:36.258Z,10.90
2017-10-22T06:58:05.609Z,10.80
2017-10-22T07:00:34.849Z,11.00
2017-10-22T07:03:04.159Z,11.00
2017-10-22T07:05:33.451Z,10.90
2017-10-22T07:08:04.359Z,11.00
2017-10-22T07:10:33.650Z,11.00
2017-10-22T07:13:02.923Z,11.00
2017-10-22T07:15:32.170Z,11.00
2017-10-22T07:18:01.437Z,11.00
2017-10-22T07:20:30.703Z,11.20
2017-10-22T07:23:00.104Z,11.10
2017-10-22T07:25:29.347Z,11.00
2017-10-22T07:27:58.652Z,11.00
2017-10-22T07:30:28.411Z,10.90
2017-10-22T07:32:57.641Z,10.90
2017-10-22T07:35:27.015Z,10.70
2017-10-22T07:37:56.281Z,10.70
2017-10-22T07:40:25.533Z,10.70
2017-10-22T07:42:54.806Z,10.80
2017-10-22T07:45:24.070Z,10.70
2017-10-22T07:47:53.342Z,10.80
2017-10-22T07:50:22.618Z,10.80
2017-10-22T07:52:52.631Z,10.80
2017-10-22T07:55:23.526Z,10.90
2017-10-22T07:57:52.800Z,10.90
2017-10-22T08:00:22.822Z,10.90
2017-10-22T08:02:52.404Z,11.00
2017-10-22T08:05:21.651Z,10.90
2017-10-22T08:07:50.890Z,10.90
2017-10-22T08:10:20.318Z,10.90
2017-10-22T08:12:50.324Z,11.00
2017-10-22T08:15:19.615Z,11.00
2017-10-22T08:17:48.876Z,11.10
2017-10-22T08:20:18.134Z,11.10
2017-10-22T08:22:48.190Z,10.90
2017-10-22T08:25:17.441Z,10.90
2017-10-22T08:27:48.291Z,10.90
2017-10-22T08:30:18.350Z,10.80
2017-10-22T08:32:47.726Z,10.80
2017-10-22T08:35:17.770Z,10.80
2017-10-22T08:37:47.042Z,10.70
2017-10-22T08:40:16.278Z,10.80
2017-10-22T08:42:45.551Z,10.90
2017-10-22T08:45:15.630Z,11.00
2017-10-22T08:47:44.919Z,10.90
2017-10-22T08:50:14.261Z,10.90
2017-10-22T08:52:44.302Z,11.00
2017-10-22T08:55:13.670Z,11.00
2017-10-22T08:57:43.743Z,10.90
2017-10-22T09:00:12.999Z,10.90
2017-10-22T09:02:42.329Z,10.90
2017-10-22T09:05:11.731Z,11.00
2017-10-22T09:07:41.468Z,10.90
2017-10-22T09:10:11.118Z,11.00
2017-10-22T09:12:40.381Z,10.80
2017-10-22T09:15:09.682Z,10.90
2017-10-22T09:17:38.930Z,11.00
2017-10-22T09:20:08.182Z,11.10
2017-10-22T09:22:37.467Z,11.10
2017-10-22T09:25:06.709Z,11.20
2017-10-22T09:27:35.961Z,11.20
2017-10-22T09:30:05.878Z,11.20
2017-10-22T09:32:35.150Z,11.10
2017-10-22T09:35:05.158Z,11.10
2017-10-22T09:37:34.427Z,11.10
2017-10-22T09:40:03.670Z,11.00
2017-10-22T09:42:33.703Z,11.00
2017-10-22T09:45:02.942Z,11.00
2017-10-22T09:47:32.191Z,11.00
2017-10-22T09:50:01.487Z,10.90
2017-10-22T09:52:31.560Z,11.00
2017-10-22T09:55:00.844Z,11.00
2017-10-22T09:57:30.110Z,11.10
2017-10-22T10:00:00.154Z,11.10
2017-10-22T10:02:29.403Z,11.10
2017-10-22T10:05:00.201Z,11.00
2017-10-22T10:07:30.216Z,11.00
2017-10-22T10:09:59.600Z,11.00
2017-10-22T10:12:30.330Z,11.00
2017-10-22T10:14:59.633Z,11.00
2017-10-22T10:17:28.909Z,11.10
2017-10-22T10:19:58.178Z,11.10
2017-10-22T10:22:27.443Z,11.10
2017-10-22T10:24:56.686Z,11.00
2017-10-22T10:27:25.962Z,11.20
2017-10-22T10:29:55.243Z,11.40
2017-10-22T10:32:24.538Z,11.20
2017-10-22T10:34:54.570Z,11.40
2017-10-22T10:37:23.860Z,11.30
2017-10-22T10:39:53.142Z,11.50
2017-10-22T10:42:23.281Z,11.70
2017-10-22T10:44:53.396Z,11.80
2017-10-22T10:47:23.447Z,11.80
2017-10-22T10:49:52.808Z,11.80
2017-10-22T10:52:22.062Z,11.70
2017-10-22T10:54:51.337Z,11.80
2017-10-22T10:57:20.599Z,12.00
2017-10-22T10:59:50.619Z,12.10
2017-10-22T11:02:20.668Z,12.00
2017-10-22T11:04:49.933Z,12.00
2017-10-22T11:07:20.871Z,12.00
2017-10-22T11:09:50.182Z,12.00
2017-10-22T11:12:19.598Z,12.00
2017-10-22T11:14:50.082Z,11.80
2017-10-22T11:17:19.330Z,11.80
2017-10-22T11:19:48.608Z,11.90
2017-10-22T11:22:17.894Z,11.80
2017-10-22T11:24:47.142Z,11.80
2017-10-22T11:27:17.142Z,11.80
2017-10-22T11:29:47.251Z,11.70
2017-10-22T11:32:16.489Z,11.60
2017-10-22T11:34:45.958Z,11.40
2017-10-22T11:37:15.208Z,11.40
2017-10-22T11:39:44.741Z,11.30
2017-10-22T11:42:14.271Z,11.30
2017-10-22T11:44:44.301Z,11.30
2017-10-22T11:47:13.547Z,11.30
2017-10-22T11:49:42.802Z,11.40
2017-10-22T11:52:12.832Z,11.60
2017-10-22T11:54:42.082Z,11.60
2017-10-22T11:57:11.330Z,11.60
2017-10-22T11:59:40.815Z,11.70
2017-10-22T12:02:10.063Z,11.70
2017-10-22T12:04:39.341Z,11.60
2017-10-22T12:07:08.578Z,11.60
2017-10-22T12:09:37.861Z,11.70
2017-10-22T12:12:07.127Z,11.70
2017-10-22T12:14:37.229Z,11.70
2017-10-22T12:17:06.668Z,11.70
2017-10-22T12:19:36.638Z,11.80
2017-10-22T12:22:05.931Z,11.70
2017-10-22T12:24:35.175Z,11.70
2017-10-22T12:27:04.455Z,11.70
2017-10-22T12:29:33.921Z,11.70
2017-10-22T12:32:03.210Z,11.70
2017-10-22T12:34:32.586Z,11.50
2017-10-22T12:37:02.004Z,11.50
2017-10-22T12:39:31.313Z,11.60
2017-10-22T12:42:00.611Z,11.70
2017-10-22T12:44:30.634Z,11.90
2017-10-22T12:46:59.887Z,11.90
2017-10-22T12:49:29.128Z,11.90
2017-10-22T12:51:58.410Z,12.00
2017-10-22T12:54:28.556Z,12.20
2017-10-22T12:56:57.844Z,12.20
2017-10-22T12:59:27.859Z,12.20
2017-10-22T13:01:57.099Z,12.30
2017-10-22T13:04:26.355Z,12.30
2017-10-22T13:06:56.377Z,12.20
2017-10-22T13:09:25.685Z,12.20
2017-10-22T13:11:54.879Z,12.00
2017-10-22T13:14:24.915Z,12.10
2017-10-22T13:16:54.393Z,12.00
2017-10-22T13:19:23.645Z,12.00
2017-10-22T13:21:52.983Z,12.20
2017-10-22T13:24:22.338Z,12.10
2017-10-22T13:26:51.601Z,12.00
2017-10-22T13:29:20.854Z,11.90
2017-10-22T13:31:50.100Z,12.00
2017-10-22T13:34:20.184Z,12.00
2017-10-22T13:36:49.437Z,12.00
2017-10-22T13:39:18.758Z,12.00
2017-10-22T13:41:48.034Z,11.70
2017-10-22T13:44:17.286Z,11.60
2017-10-22T13:46:46.758Z,11.60
2017-10-22T13:49:16.011Z,11.50
2017-10-22T13:51:45.281Z,11.60
2017-10-22T13:54:14.691Z,11.60
2017-10-22T13:56:43.934Z,11.70
2017-10-22T13:59:13.960Z,11.60
2017-10-22T14:01:43.227Z,11.60
2017-10-22T14:04:14.206Z,11.50
2017-10-22T14:06:43.596Z,11.50
2017-10-22T14:09:13.638Z,12.00
2017-10-22T14:11:42.901Z,12.00
2017-10-22T14:14:12.155Z,12.00
2017-10-22T14:16:41.407Z,11.90
2017-10-22T14:19:10.650Z,12.00
2017-10-22T14:21:40.012Z,12.00
2017-10-22T14:24:10.026Z,12.10
2017-10-22T14:26:39.270Z,12.00
2017-10-22T14:29:08.546Z,12.20
2017-10-22T14:31:38.637Z,12.50
2017-10-22T14:34:07.895Z,12.50
2017-10-22T14:36:37.131Z,12.70
2017-10-22T14:39:06.554Z,12.70
2017-10-22T14:41:36.567Z,12.50
2017-10-22T14:44:05.982Z,12.40
2017-10-22T14:46:35.989Z,12.30
2017-10-22T14:49:05.407Z,12.30
2017-10-22T14:51:34.776Z,12.10
2017-10-22T14:54:04.026Z,12.10
2017-10-22T14:56:33.325Z,12.10
2017-10-22T14:59:02.563Z,12.10
2017-10-22T15:01:31.799Z,12.00
2017-10-22T15:04:01.093Z,12.00
2017-10-22T15:06:30.351Z,12.00
2017-10-22T15:08:59.587Z,11.90
2017-10-22T15:11:28.863Z,11.80
2017-10-22T15:13:58.255Z,11.80
2017-10-22T15:16:27.579Z,11.70
2017-10-22T15:18:56.934Z,11.60
2017-10-22T15:21:26.185Z,11.40
2017-10-22T15:23:55.622Z,11.30
2017-10-22T15:26:25.675Z,11.20
2017-10-22T15:28:55.069Z,11.20
2017-10-22T15:31:24.280Z,11.20
2017-10-22T15:33:53.658Z,11.10
2017-10-22T15:36:23.693Z,11.10
2017-10-22T15:38:52.936Z,11.10
2017-10-22T15:41:22.367Z,11.10
2017-10-22T15:43:51.651Z,11.10
2017-10-22T15:46:20.896Z,11.10
2017-10-22T15:48:50.140Z,11.10
2017-10-22T15:51:19.415Z,11.10
2017-10-22T15:53:48.718Z,11.10
2017-10-22T15:56:17.973Z,11.00
2017-10-22T15:58:47.999Z,10.90
2017-10-22T16:01:17.414Z,10.90
2017-10-22T16:03:46.783Z,10.90
2017-10-22T16:06:16.055Z,10.90
2017-10-22T16:08:45.310Z,10.70
2017-10-22T16:11:15.320Z,10.60
2017-10-22T16:13:44.602Z,10.60
2017-10-22T16:16:14.046Z,10.50
2017-10-22T16:18:43.314Z,10.50
2017-10-22T16:21:12.634Z,10.50
2017-10-22T16:23:42.767Z,10.40
2017-10-22T16:26:12.007Z,10.40
2017-10-22T16:28:41.389Z,10.20
2017-10-22T16:31:11.279Z,10.10
2017-10-22T16:33:40.637Z,10.10
2017-10-22T16:36:09.911Z,10.00
2017-10-22T16:38:39.142Z,9.90
2017-10-22T16:41:08.487Z,9.80
2017-10-22T16:43:37.745Z,9.70
2017-10-22T16:46:07.090Z,9.70
2017-10-22T16:48:36.306Z,9.50
2017-10-22T16:51:05.582Z,9.40
2017-10-22T16:53:35.634Z,9.40
2017-10-22T16:56:04.834Z,9.40
2017-10-22T16:58:34.142Z,9.30
2017-10-22T17:01:03.501Z,9.30
2017-10-22T17:03:32.723Z,9.20
2017-10-22T17:06:02.154Z,9.20
2017-10-22T17:08:31.674Z,9.10
2017-10-22T17:11:13.714Z,8.90
2017-10-22T17:13:42.996Z,8.90
2017-10-22T17:16:12.272Z,8.90
2017-10-22T17:18:41.554Z,9.00
2017-10-22T17:21:10.930Z,9.10
2017-10-22T17:23:40.188Z,9.20
2017-10-22T17:26:09.456Z,9.20
2017-10-22T17:28:38.761Z,9.20
2017-10-22T17:31:08.047Z,9.10
2017-10-22T17:33:38.469Z,9.10
2017-10-22T17:36:07.675Z,9.10
2017-10-22T17:38:36.922Z,9.10
2017-10-22T17:41:06.196Z,9.00
2017-10-22T17:43:35.569Z,8.80
2017-10-22T17:46:04.902Z,8.70
2017-10-22T17:48:34.179Z,8.70
2017-10-22T17:51:04.186Z,8.60
2017-10-22T17:53:33.458Z,8.60
2017-10-22T17:56:02.697Z,8.70
2017-10-22T17:58:32.719Z,8.60
2017-10-22T18:01:01.951Z,8.60
2017-10-22T18:03:31.215Z,8.70
2017-10-22T18:06:00.459Z,8.70
2017-10-22T18:08:29.797Z,8.80
2017-10-22T18:10:59.824Z,9.00
2017-10-22T18:13:29.082Z,8.90
2017-10-22T18:15:58.368Z,8.90
2017-10-22T18:18:27.615Z,8.90
2017-10-22T18:20:57.638Z,8.90
2017-10-22T18:23:27.048Z,8.90
2017-10-22T18:25:57.095Z,8.70
2017-10-22T18:28:26.460Z,8.70
2017-10-22T18:30:55.718Z,8.60
2017-10-22T18:33:24.979Z,8.60
2017-10-22T18:35:54.207Z,8.40
2017-10-22T18:38:23.479Z,8.30
2017-10-22T18:40:53.486Z,8.10
2017-10-22T18:43:22.754Z,8.10
2017-10-22T18:45:52.189Z,8.00
2017-10-22T18:48:22.187Z,8.00
2017-10-22T18:50:51.470Z,8.00
2017-10-22T18:53:20.722Z,7.90
2017-10-22T18:55:50.714Z,7.80
2017-10-22T18:58:19.995Z,7.80
2017-10-22T19:00:49.248Z,7.70
2017-10-22T19:03:18.488Z,7.50
2017-10-22T19:05:47.747Z,7.40
2017-10-22T19:08:17.039Z,7.30
2017-10-22T19:10:46.374Z,7.30
2017-10-22T19:13:15.627Z,7.20
2017-10-22T19:15:45.675Z,7.20
2017-10-22T19:18:14.915Z,7.10
2017-10-22T19:20:44.843Z,7.10
2017-10-22T19:23:14.118Z,7.20
2017-10-22T19:25:43.381Z,7.10
2017-10-22T19:28:12.607Z,7.20
2017-10-22T19:30:41.863Z,7.10
2017-10-22T19:33:11.170Z,7.10
2017-10-22T19:35:41.198Z,7.10
2017-10-22T19:38:10.454Z,7.10
2017-10-22T19:40:39.844Z,7.00
2017-10-22T19:43:09.220Z,7.00
2017-10-22T19:45:38.445Z,7.00
2017-10-22T19:48:07.862Z,7.00
2017-10-22T19:50:37.123Z,6.90
2017-10-22T19:53:06.622Z,7.00
2017-10-22T19:55:36.005Z,7.00
2017-10-22T19:58:05.293Z,6.80
2017-10-22T20:00:34.550Z,6.80
2017-10-22T20:03:03.787Z,6.80
2017-10-22T20:05:33.019Z,6.80
2017-10-22T20:08:02.838Z,6.70
2017-10-22T20:10:32.106Z,6.70
2017-10-22T20:13:01.374Z,6.70
2017-10-22T20:15:30.628Z,6.70
2017-10-22T20:18:00.641Z,6.80
2017-10-22T20:20:30.762Z,6.80
2017-10-22T20:23:00.142Z,6.80
2017-10-22T20:25:29.393Z,6.80
2017-10-22T20:27:58.619Z,6.90
2017-10-22T20:30:28.882Z,6.90
2017-10-22T20:32:58.155Z,6.90
2017-10-22T20:35:27.404Z,7.00
2017-10-22T20:37:56.675Z,7.00
2017-10-22T20:40:25.928Z,7.10
2017-10-22T20:42:55.167Z,7.20
2017-10-22T20:45:24.434Z,7.30
2017-10-22T20:47:53.953Z,7.40
2017-10-22T20:50:23.184Z,7.40
2017-10-22T20:52:52.450Z,7.50
2017-10-22T20:55:21.727Z,7.50
2017-10-22T20:57:50.959Z,7.60
2017-10-22T21:00:20.206Z,7.60
2017-10-22T21:02:49.437Z,7.60
2017-10-22T21:05:18.702Z,7.70
2017-10-22T21:07:48.776Z,7.80
2017-10-22T21:10:18.006Z,7.80
2017-10-22T21:12:48.851Z,7.80
2017-10-22T21:15:18.090Z,7.80
2017-10-22T21:17:47.479Z,7.80
2017-10-22T21:20:17.502Z,7.80
2017-10-22T21:22:47.385Z,7.80
2017-10-22T21:25:17.647Z,7.90
2017-10-22T21:27:46.886Z,7.90
2017-10-22T21:30:16.116Z,8.00
2017-10-22T21:32:45.523Z,7.90
2017-10-22T21:35:14.739Z,7.90
2017-10-22T21:37:44.002Z,7.90
2017-10-22T21:40:13.237Z,8.00
2017-10-22T21:42:43.269Z,8.00
2017-10-22T21:45:12.635Z,7.90
2017-10-22T21:47:41.912Z,8.00
2017-10-22T21:50:11.171Z,8.00
2017-10-22T21:52:40.422Z,8.00
2017-10-22T21:55:09.690Z,8.10
2017-10-22T21:57:38.942Z,8.10
2017-10-22T22:00:08.996Z,8.10
2017-10-22T22:02:38.355Z,8.10
2017-10-22T22:05:07.598Z,8.20
2017-10-22T22:07:36.854Z,8.10
2017-10-22T22:10:06.118Z,8.10
2017-10-22T22:12:35.570Z,8.00
2017-10-22T22:15:04.862Z,8.00
2017-10-22T22:17:34.106Z,8.00
2017-10-22T22:20:03.522Z,8.10
2017-10-22T22:22:33.495Z,8.20
2017-10-22T22:25:02.751Z,8.20
2017-10-22T22:27:32.179Z,8.20
2017-10-22T22:30:01.423Z,8.30
2017-10-22T22:32:30.702Z,8.20
2017-10-22T22:35:00.096Z,8.20
2017-10-22T22:37:29.606Z,8.20
2017-10-22T22:39:58.970Z,8.30
2017-10-22T22:42:28.237Z,8.30
2017-10-22T22:44:57.470Z,8.30
2017-10-22T22:47:26.713Z,8.30
2017-10-22T22:49:56.118Z,8.30
2017-10-22T22:52:26.235Z,8.30
2017-10-22T22:54:56.376Z,8.30
2017-10-22T22:57:26.388Z,8.30
2017-10-22T22:59:55.664Z,8.30
2017-10-22T23:02:25.088Z,8.20
2017-10-22T23:04:54.394Z,8.30
2017-10-22T23:07:24.422Z,8.30
2017-10-22T23:09:53.804Z,8.30
2017-10-22T23:12:23.310Z,8.30
2017-10-22T23:14:53.327Z,8.30
2017-10-22T23:17:22.605Z,8.30
2017-10-22T23:19:52.031Z,8.30
2017-10-22T23:22:22.038Z,8.30
2017-10-22T23:24:51.293Z,8.30
2017-10-22T23:27:21.503Z,8.30
2017-10-22T23:29:50.760Z,8.20
2017-10-22T23:32:20.015Z,8.20
2017-10-22T23:34:49.254Z,8.20
2017-10-22T23:37:18.581Z,8.10
2017-10-22T23:39:48.592Z,8.10
2017-10-22T23:42:17.898Z,8.00
2017-10-22T23:44:48.072Z,8.00
2017-10-22T23:47:17.343Z,8.00
2017-10-22T23:49:46.595Z,7.90
2017-10-22T23:52:16.015Z,7.90
2017-10-22T23:54:45.599Z,7.80
2017-10-22T23:57:14.839Z,7.80
2017-10-22T23:59:44.837Z,7.70
